createdAt,value
2019-04-25T00:01:40.140Z,9.40
2019-04-25T00:04:08.946Z,9.40
2019-04-25T00:06:38.668Z,9.40
2019-04-25T00:09:11.926Z,9.30
2019-04-25T00:11:42.981Z,9.40
2019-04-25T00:14:13.234Z,9.40
2019-04-25T00:16:44.125Z,9.40
2019-04-25T00:19:13.439Z,9.40
2019-04-25T00:21:43.648Z,9.50
2019-04-25T00:24:31.782Z,9.60
2019-04-25T00:27:02.110Z,9.80
2019-04-25T00:29:31.852Z,10.00
2019-04-25T00:32:01.649Z,9.90
2019-04-25T00:34:31.678Z,9.90
2019-04-25T00:37:02.331Z,9.90
2019-04-25T00:39:31.928Z,10.20
2019-04-25T00:42:02.154Z,10.30
2019-04-25T00:44:31.950Z,10.30
2019-04-25T00:47:02.277Z,10.20
2019-04-25T00:49:32.248Z,10.20
2019-04-25T00:52:01.946Z,9.90
2019-04-25T00:54:31.373Z,9.90
2019-04-25T00:56:59.977Z,10.00
2019-04-25T00:59:31.950Z,10.10
2019-04-25T01:02:07.547Z,10.20
2019-04-25T01:04:35.254Z,10.40
2019-04-25T01:07:03.735Z,10.30
2019-04-25T01:09:32.401Z,10.40
2019-04-25T01:12:03.750Z,10.70
2019-04-25T01:14:31.686Z,11.20
2019-04-25T01:17:01.788Z,11.20
2019-04-25T01:19:30.415Z,11.30
2019-04-25T01:21:58.936Z,11.40
2019-04-25T01:24:27.573Z,11.40
2019-04-25T01:26:56.022Z,11.40
2019-04-25T01:29:24.579Z,11.30
2019-04-25T01:31:54.408Z,11.20
2019-04-25T01:34:25.829Z,11.20
2019-04-25T01:37:02.133Z,11.10
2019-04-25T01:39:34.086Z,11.20
2019-04-25T01:42:16.044Z,11.30
2019-04-25T01:44:46.203Z,11.20
2019-04-25T01:47:16.111Z,11.30
2019-04-25T01:49:44.559Z,11.40
2019-04-25T01:52:13.673Z,11.40
2019-04-25T01:54:43.771Z,11.50
2019-04-25T01:57:14.248Z,11.40
2019-04-25T01:59:43.870Z,11.40
2019-04-25T02:02:14.315Z,11.30
2019-04-25T02:04:44.281Z,11.40
2019-04-25T02:07:13.499Z,11.40
2019-04-25T02:09:43.466Z,11.60
2019-04-25T02:12:15.456Z,11.70
2019-04-25T02:14:43.998Z,11.80
2019-04-25T02:17:14.020Z,12.00
2019-04-25T02:19:44.157Z,12.20
2019-04-25T02:22:14.433Z,12.50
2019-04-25T02:24:43.717Z,13.10
2019-04-25T02:27:13.405Z,12.90
2019-04-25T02:29:43.264Z,12.60
2019-04-25T02:32:14.577Z,12.40
2019-04-25T02:34:45.288Z,12.00
2019-04-25T02:37:14.626Z,11.80
2019-04-25T02:39:44.773Z,11.60
2019-04-25T02:42:16.285Z,11.40
2019-04-25T02:44:45.585Z,11.30
2019-04-25T02:47:34.257Z,11.10
2019-04-25T02:50:20.152Z,11.10
2019-04-25T02:52:50.246Z,10.90
2019-04-25T02:55:30.984Z,10.80
2019-04-25T02:57:48.889Z,10.70
2019-04-25T03:00:24.909Z,10.80
2019-04-25T03:02:54.754Z,10.80
2019-04-25T03:05:25.541Z,10.70
2019-04-25T03:07:54.538Z,10.90
2019-04-25T03:10:26.682Z,10.90
2019-04-25T03:12:54.481Z,10.90
2019-04-25T03:15:24.313Z,11.00
2019-04-25T03:17:54.632Z,10.90
2019-04-25T03:20:30.504Z,10.90
2019-04-25T03:23:01.209Z,10.80
2019-04-25T03:25:29.892Z,10.80
2019-04-25T03:27:59.418Z,10.90
2019-04-25T03:30:28.019Z,11.00
2019-04-25T03:32:56.544Z,11.10
2019-04-25T03:35:25.071Z,11.40
2019-04-25T03:37:54.489Z,11.40
2019-04-25T03:40:23.517Z,11.40
2019-04-25T03:42:53.756Z,11.50
2019-04-25T03:45:23.617Z,11.40
2019-04-25T03:47:53.186Z,11.50
2019-04-25T03:50:23.177Z,11.60
2019-04-25T03:52:51.819Z,11.80
2019-04-25T03:55:20.264Z,11.90
2019-04-25T03:57:48.727Z,11.70
2019-04-25T04:00:17.316Z,11.50
2019-04-25T04:02:45.779Z,11.40
2019-04-25T04:05:14.963Z,11.20
2019-04-25T04:07:43.658Z,11.10
2019-04-25T04:10:14.197Z,11.00
2019-04-25T04:12:44.210Z,10.90
2019-04-25T04:15:14.517Z,10.80
2019-04-25T04:18:00.111Z,10.70
2019-04-25T04:20:36.203Z,10.70
2019-04-25T04:23:13.488Z,10.80
2019-04-25T04:25:43.277Z,10.80
2019-04-25T04:28:13.777Z,10.80
2019-04-25T04:30:43.560Z,10.90
2019-04-25T04:33:23.096Z,11.10
2019-04-25T04:35:43.898Z,11.20
2019-04-25T04:38:14.100Z,11.40
2019-04-25T04:40:44.197Z,11.40
2019-04-25T04:43:14.476Z,11.60
2019-04-25T04:45:44.977Z,11.80
2019-04-25T04:48:14.507Z,11.90
2019-04-25T04:50:43.666Z,11.90
2019-04-25T04:53:13.203Z,11.70
2019-04-25T04:55:43.163Z,11.60
2019-04-25T04:58:13.058Z,11.50
2019-04-25T05:00:43.678Z,11.50
2019-04-25T05:03:16.890Z,11.50
2019-04-25T05:05:50.423Z,11.50
2019-04-25T05:08:26.500Z,11.50
2019-04-25T05:10:57.290Z,11.70
2019-04-25T05:13:25.288Z,11.90
2019-04-25T05:15:53.823Z,12.00
2019-04-25T05:18:36.617Z,12.10
2019-04-25T05:20:54.131Z,12.40
2019-04-25T05:23:23.443Z,12.40
2019-04-25T05:25:53.918Z,12.60
2019-04-25T05:28:24.396Z,12.70
2019-04-25T05:31:00.899Z,12.80
2019-04-25T05:33:29.364Z,13.00
2019-04-25T05:35:57.819Z,13.10
2019-04-25T05:38:26.279Z,13.20
2019-04-25T05:40:56.375Z,13.20
2019-04-25T05:43:26.479Z,13.40
2019-04-25T05:45:55.012Z,13.50
2019-04-25T05:48:25.077Z,13.70
2019-04-25T05:50:53.786Z,13.80
2019-04-25T05:53:23.850Z,13.90
2019-04-25T05:55:53.975Z,14.00
2019-04-25T05:58:24.535Z,14.10
2019-04-25T06:00:54.313Z,14.20
2019-04-25T06:03:24.857Z,14.30
2019-04-25T06:05:53.454Z,14.50
2019-04-25T06:08:25.450Z,14.80
2019-04-25T06:10:55.432Z,14.90
2019-04-25T06:13:33.236Z,15.10
2019-04-25T06:16:03.636Z,15.30
2019-04-25T06:18:33.903Z,15.40
2019-04-25T06:21:03.124Z,15.50
2019-04-25T06:23:42.275Z,15.50
2019-04-25T06:26:22.534Z,15.70
2019-04-25T06:28:52.021Z,15.80
2019-04-25T06:31:13.752Z,15.90
2019-04-25T06:33:43.412Z,16.20
2019-04-25T06:36:11.978Z,16.30
2019-04-25T06:38:40.442Z,16.30
2019-04-25T06:41:08.950Z,16.30
2019-04-25T06:43:39.055Z,16.50
2019-04-25T06:46:24.809Z,16.50
2019-04-25T06:49:04.578Z,16.60
2019-04-25T06:51:48.748Z,16.70
2019-04-25T06:54:17.427Z,16.80
2019-04-25T06:56:46.096Z,16.80
2019-04-25T06:59:14.547Z,16.90
2019-04-25T07:01:43.968Z,17.00
2019-04-25T07:04:14.090Z,17.00
2019-04-25T07:06:44.427Z,17.10
2019-04-25T07:09:14.654Z,17.20
2019-04-25T07:11:44.030Z,17.30
2019-04-25T07:14:14.187Z,17.40
2019-04-25T07:16:43.403Z,17.40
2019-04-25T07:19:12.101Z,17.50
2019-04-25T07:21:40.547Z,17.60
2019-04-25T07:24:09.078Z,17.60
2019-04-25T07:26:39.741Z,17.60
2019-04-25T07:29:19.443Z,17.70
2019-04-25T07:32:07.867Z,17.70
2019-04-25T07:34:36.684Z,17.90
2019-04-25T07:37:05.259Z,17.90
2019-04-25T07:39:34.408Z,18.00
2019-04-25T07:42:04.182Z,18.00
2019-04-25T07:44:41.997Z,18.10
2019-04-25T07:47:04.052Z,18.20
2019-04-25T07:49:33.582Z,18.30
2019-04-25T07:52:03.588Z,18.40
2019-04-25T07:54:34.018Z,18.40
2019-04-25T07:57:03.606Z,18.50
2019-04-25T07:59:34.967Z,18.40
2019-04-25T08:02:03.400Z,18.60
2019-04-25T08:04:32.005Z,18.60
2019-04-25T08:07:00.519Z,18.70
2019-04-25T08:09:29.519Z,18.80
2019-04-25T08:11:58.148Z,18.90
2019-04-25T08:14:34.915Z,18.90
2019-04-25T08:17:05.719Z,19.00
2019-04-25T08:19:35.406Z,19.10
2019-04-25T08:22:05.416Z,19.20
2019-04-25T08:24:35.919Z,19.30
2019-04-25T08:27:05.014Z,19.30
2019-04-25T08:29:36.336Z,19.30
2019-04-25T08:32:04.565Z,19.40
2019-04-25T08:34:35.730Z,19.40
2019-04-25T08:37:04.086Z,19.40
2019-04-25T08:39:34.106Z,19.50
2019-04-25T08:42:03.493Z,19.50
2019-04-25T08:44:33.074Z,19.60
2019-04-25T08:47:04.375Z,19.70
2019-04-25T08:49:40.343Z,19.80
2019-04-25T08:52:08.796Z,19.90
2019-04-25T08:54:41.488Z,19.90
2019-04-25T08:57:10.720Z,19.90
2019-04-25T08:59:47.197Z,19.90
2019-04-25T09:02:15.831Z,20.00
2019-04-25T09:04:51.767Z,20.10
2019-04-25T09:07:20.367Z,20.20
2019-04-25T09:09:48.815Z,20.20
2019-04-25T09:12:17.279Z,20.20
2019-04-25T09:14:46.465Z,20.30
2019-04-25T09:17:15.131Z,20.30
2019-04-25T09:19:44.431Z,20.30
2019-04-25T09:22:13.835Z,20.10
2019-04-25T09:24:44.108Z,20.10
2019-04-25T09:27:13.440Z,20.30
2019-04-25T09:29:43.099Z,20.40
2019-04-25T09:32:13.679Z,20.40
2019-04-25T09:34:43.710Z,20.50
2019-04-25T09:37:14.159Z,20.50
2019-04-25T09:39:53.764Z,20.50
2019-04-25T09:42:23.786Z,20.40
2019-04-25T09:45:06.048Z,20.40
2019-04-25T09:47:35.731Z,20.40
2019-04-25T09:50:07.319Z,20.40
2019-04-25T09:52:36.115Z,20.40
2019-04-25T09:55:09.542Z,20.40
2019-04-25T09:57:55.890Z,20.50
2019-04-25T10:00:26.324Z,20.60
2019-04-25T10:02:55.532Z,20.60
2019-04-25T10:05:24.287Z,20.70
2019-04-25T10:07:53.341Z,20.90
2019-04-25T10:10:22.151Z,21.10
2019-04-25T10:12:50.618Z,21.20
2019-04-25T10:15:25.227Z,21.30
2019-04-25T10:17:53.752Z,21.40
2019-04-25T10:20:23.175Z,21.50
2019-04-25T10:22:51.894Z,21.60
2019-04-25T10:25:20.504Z,21.60
2019-04-25T10:27:49.358Z,21.70
2019-04-25T10:30:23.064Z,21.70
2019-04-25T10:32:50.808Z,21.70
2019-04-25T10:35:19.466Z,21.50
2019-04-25T10:37:48.489Z,21.50
2019-04-25T10:40:18.614Z,21.50
2019-04-25T10:42:49.250Z,21.60
2019-04-25T10:45:23.186Z,21.90
2019-04-25T10:47:47.772Z,22.10
2019-04-25T10:50:16.559Z,22.00
2019-04-25T10:52:46.156Z,22.20
2019-04-25T10:55:15.407Z,22.30
2019-04-25T10:57:45.523Z,22.30
2019-04-25T11:00:36.628Z,22.50
2019-04-25T11:03:07.351Z,22.60
2019-04-25T11:05:35.879Z,22.60
2019-04-25T11:08:04.487Z,22.60
2019-04-25T11:10:34.377Z,22.70
2019-04-25T11:13:04.074Z,22.80
2019-04-25T11:15:33.985Z,22.80
2019-04-25T11:18:04.088Z,22.90
2019-04-25T11:20:33.862Z,22.80
2019-04-25T11:23:03.830Z,23.00
2019-04-25T11:25:34.178Z,23.10
2019-04-25T11:28:05.070Z,23.20
2019-04-25T11:30:33.671Z,23.20
2019-04-25T11:33:03.654Z,23.40
2019-04-25T11:35:32.244Z,23.40
2019-04-25T11:38:03.454Z,23.40
2019-04-25T11:40:36.832Z,23.60
2019-04-25T11:43:05.520Z,23.90
2019-04-25T11:45:37.350Z,23.60
2019-04-25T11:48:06.051Z,23.50
2019-04-25T11:50:36.931Z,23.50
2019-04-25T11:53:05.160Z,23.60
2019-04-25T11:55:33.752Z,23.80
2019-04-25T11:58:03.706Z,24.00
2019-04-25T12:00:33.762Z,24.10
2019-04-25T12:03:03.645Z,24.10
2019-04-25T12:05:32.232Z,24.10
2019-04-25T12:08:00.825Z,24.00
2019-04-25T12:10:30.057Z,23.90
2019-04-25T12:12:58.506Z,24.00
2019-04-25T12:15:27.118Z,24.10
2019-04-25T12:17:55.889Z,24.20
2019-04-25T12:20:24.575Z,24.20
2019-04-25T12:23:04.211Z,24.10
2019-04-25T12:25:23.704Z,23.90
2019-04-25T12:27:53.828Z,24.10
2019-04-25T12:30:36.752Z,24.20
2019-04-25T12:32:53.897Z,24.10
2019-04-25T12:35:24.226Z,24.40
2019-04-25T12:37:54.032Z,24.50
2019-04-25T12:40:24.210Z,24.60
2019-04-25T12:42:52.923Z,24.50
2019-04-25T12:45:28.886Z,24.50
2019-04-25T12:47:59.347Z,24.30
2019-04-25T12:50:27.990Z,24.30
2019-04-25T12:52:56.452Z,24.20
2019-04-25T12:55:24.980Z,24.20
2019-04-25T12:57:55.411Z,24.20
2019-04-25T13:00:27.695Z,24.00
2019-04-25T13:02:56.642Z,24.00
2019-04-25T13:05:25.239Z,24.10
2019-04-25T13:07:55.995Z,24.30
2019-04-25T13:10:24.083Z,24.30
2019-04-25T13:12:55.262Z,24.20
2019-04-25T13:15:25.762Z,23.80
2019-04-25T13:17:53.691Z,23.70
2019-04-25T13:20:22.211Z,23.70
2019-04-25T13:22:50.655Z,23.80
2019-04-25T13:25:20.927Z,23.70
2019-04-25T13:27:51.158Z,23.90
2019-04-25T13:30:30.383Z,24.10
2019-04-25T13:33:03.063Z,24.20
2019-04-25T13:35:39.133Z,24.20
2019-04-25T13:38:08.586Z,24.20
2019-04-25T13:40:37.219Z,24.20
2019-04-25T13:43:06.210Z,24.00
2019-04-25T13:45:34.864Z,24.00
2019-04-25T13:48:04.866Z,24.10
2019-04-25T13:50:34.421Z,24.10
2019-04-25T13:53:03.394Z,24.10
2019-04-25T13:55:32.206Z,23.80
2019-04-25T13:58:00.739Z,23.90
2019-04-25T14:00:30.174Z,24.10
2019-04-25T14:02:58.846Z,23.90
2019-04-25T14:05:28.347Z,23.80
2019-04-25T14:07:56.971Z,23.80
2019-04-25T14:10:26.454Z,23.80
2019-04-25T14:12:55.301Z,23.90
2019-04-25T14:15:25.310Z,24.10
2019-04-25T14:17:55.648Z,24.20
2019-04-25T14:20:43.806Z,24.20
2019-04-25T14:23:14.576Z,24.10
2019-04-25T14:25:42.815Z,23.90
2019-04-25T14:28:11.343Z,24.00
2019-04-25T14:30:40.112Z,23.90
2019-04-25T14:33:08.642Z,23.90
2019-04-25T14:35:37.290Z,23.90
2019-04-25T14:38:06.157Z,24.00
2019-04-25T14:40:34.711Z,23.90
2019-04-25T14:43:04.647Z,24.00
2019-04-25T14:45:43.063Z,23.80
2019-04-25T14:48:03.422Z,23.80
2019-04-25T14:50:31.971Z,23.80
2019-04-25T14:53:00.514Z,23.70
2019-04-25T14:55:45.719Z,23.70
2019-04-25T14:58:15.891Z,23.80
2019-04-25T15:00:46.260Z,23.70
2019-04-25T15:03:14.856Z,23.60
2019-04-25T15:05:43.618Z,23.60
2019-04-25T15:08:12.193Z,23.50
2019-04-25T15:10:40.727Z,23.40
2019-04-25T15:13:10.080Z,23.30
2019-04-25T15:15:38.684Z,23.40
2019-04-25T15:18:07.134Z,23.50
2019-04-25T15:20:35.598Z,23.60
2019-04-25T15:23:04.476Z,23.60
2019-04-25T15:25:32.994Z,23.70
2019-04-25T15:28:01.530Z,23.60
2019-04-25T15:30:34.606Z,23.60
2019-04-25T15:33:03.552Z,23.60
2019-04-25T15:35:34.329Z,23.60
2019-04-25T15:38:04.707Z,23.60
2019-04-25T15:40:34.879Z,23.60
2019-04-25T15:43:10.781Z,23.50
2019-04-25T15:45:46.948Z,23.40
2019-04-25T15:48:15.400Z,23.60
2019-04-25T15:50:44.199Z,23.70
2019-04-25T15:53:12.716Z,23.90
2019-04-25T15:55:41.584Z,24.10
2019-04-25T15:58:10.117Z,24.10
2019-04-25T16:00:39.211Z,24.30
2019-04-25T16:03:08.120Z,24.20
2019-04-25T16:05:36.883Z,23.80
2019-04-25T16:08:06.050Z,23.30
2019-04-25T16:10:34.570Z,22.60
2019-04-25T16:13:03.026Z,22.30
2019-04-25T16:15:31.615Z,22.20
2019-04-25T16:18:00.147Z,22.20
2019-04-25T16:20:29.499Z,22.20
2019-04-25T16:22:58.303Z,22.20
2019-04-25T16:25:27.241Z,22.10
2019-04-25T16:27:55.703Z,21.70
2019-04-25T16:30:25.938Z,21.50
2019-04-25T16:32:54.558Z,21.50
2019-04-25T16:35:23.166Z,21.60
2019-04-25T16:37:51.751Z,21.50
2019-04-25T16:40:20.517Z,21.30
2019-04-25T16:42:49.175Z,21.10
2019-04-25T16:45:17.688Z,21.00
2019-04-25T16:47:46.156Z,20.90
2019-04-25T16:50:15.923Z,20.80
2019-04-25T16:52:44.453Z,20.90
2019-04-25T16:55:13.671Z,21.10
2019-04-25T16:57:42.564Z,21.30
2019-04-25T17:00:30.851Z,21.20
2019-04-25T17:02:59.515Z,20.90
2019-04-25T17:05:30.831Z,20.80
2019-04-25T17:07:59.530Z,20.80
2019-04-25T17:10:28.130Z,20.60
2019-04-25T17:12:56.727Z,20.40
2019-04-25T17:15:32.380Z,20.30
2019-04-25T17:18:08.319Z,20.10
2019-04-25T17:20:38.487Z,20.10
2019-04-25T17:23:07.090Z,20.00
2019-04-25T17:25:35.543Z,19.90
2019-04-25T17:28:04.408Z,19.80
2019-04-25T17:30:34.772Z,19.90
2019-04-25T17:33:17.138Z,19.80
2019-04-25T17:35:55.731Z,19.80
2019-04-25T17:38:25.899Z,19.70
2019-04-25T17:40:54.348Z,19.50
2019-04-25T17:43:22.820Z,19.40
2019-04-25T17:45:51.341Z,19.40
2019-04-25T17:48:19.862Z,19.30
2019-04-25T17:50:48.343Z,19.20
2019-04-25T17:53:16.793Z,19.20
2019-04-25T17:55:45.863Z,19.00
2019-04-25T17:58:14.398Z,19.00
2019-04-25T18:00:45.056Z,18.90
2019-04-25T18:03:13.844Z,18.80
2019-04-25T18:05:42.362Z,18.60
2019-04-25T18:08:10.899Z,18.40
2019-04-25T18:10:39.446Z,18.30
2019-04-25T18:13:09.553Z,18.20
2019-04-25T18:15:48.775Z,18.30
2019-04-25T18:18:18.952Z,18.30
2019-04-25T18:20:47.622Z,18.30
2019-04-25T18:23:33.004Z,18.30
2019-04-25T18:26:03.110Z,18.50
2019-04-25T18:28:50.010Z,18.60
2019-04-25T18:31:18.572Z,18.50
2019-04-25T18:33:48.611Z,18.30
2019-04-25T18:36:18.736Z,18.30
2019-04-25T18:38:48.876Z,18.10
2019-04-25T18:41:28.191Z,18.10
2019-04-25T18:43:58.310Z,18.10
2019-04-25T18:46:30.827Z,18.10
2019-04-25T18:48:59.276Z,18.10
2019-04-25T18:51:27.739Z,18.10
2019-04-25T18:54:13.282Z,18.20
2019-04-25T18:56:43.451Z,18.10
2019-04-25T18:59:29.795Z,18.20
2019-04-25T19:02:05.580Z,18.20
2019-04-25T19:04:38.330Z,18.20
2019-04-25T19:07:07.023Z,18.00
2019-04-25T19:09:35.536Z,17.90
2019-04-25T19:12:04.171Z,17.70
2019-04-25T19:14:32.695Z,17.60
2019-04-25T19:17:01.161Z,17.60
2019-04-25T19:19:29.611Z,17.50
2019-04-25T19:21:58.075Z,17.50
2019-04-25T19:24:26.602Z,17.40
2019-04-25T19:26:55.136Z,17.30
2019-04-25T19:29:23.622Z,17.20
2019-04-25T19:31:53.305Z,17.10
2019-04-25T19:34:21.903Z,17.10
2019-04-25T19:36:51.178Z,17.10
2019-04-25T19:39:21.671Z,17.00
2019-04-25T19:42:10.164Z,17.00
2019-04-25T19:44:38.758Z,16.90
2019-04-25T19:47:07.297Z,17.00
2019-04-25T19:49:35.889Z,16.80
2019-04-25T19:52:04.423Z,16.80
2019-04-25T19:54:32.870Z,16.70
2019-04-25T19:57:01.346Z,16.70
2019-04-25T19:59:29.870Z,16.70
2019-04-25T20:01:59.960Z,16.70
2019-04-25T20:04:43.090Z,16.70
2019-04-25T20:07:20.079Z,16.70
2019-04-25T20:09:51.087Z,16.60
2019-04-25T20:12:21.350Z,16.50
2019-04-25T20:14:49.813Z,16.40
2019-04-25T20:17:18.262Z,16.40
2019-04-25T20:19:47.651Z,16.40
2019-04-25T20:22:16.259Z,16.30
2019-04-25T20:24:45.349Z,16.40
2019-04-25T20:27:14.748Z,16.40
2019-04-25T20:29:44.130Z,16.40
2019-04-25T20:32:13.823Z,16.50
2019-04-25T20:34:42.388Z,16.60
2019-04-25T20:37:10.886Z,16.70
2019-04-25T20:39:39.419Z,16.70
2019-04-25T20:42:07.888Z,16.70
2019-04-25T20:44:36.667Z,16.70
2019-04-25T20:47:05.390Z,16.70
2019-04-25T20:49:33.938Z,16.70
2019-04-25T20:52:02.388Z,16.80
2019-04-25T20:54:30.889Z,16.80
2019-04-25T20:56:59.342Z,16.90
2019-04-25T20:59:27.887Z,16.80
2019-04-25T21:01:56.350Z,16.80
2019-04-25T21:04:41.475Z,16.70
2019-04-25T21:07:11.036Z,16.60
2019-04-25T21:09:39.544Z,16.40
2019-04-25T21:12:08.346Z,16.40
2019-04-25T21:14:41.263Z,16.30
2019-04-25T21:17:14.095Z,16.20
2019-04-25T21:19:44.201Z,16.20
2019-04-25T21:22:12.646Z,16.00
2019-04-25T21:24:41.105Z,16.00
2019-04-25T21:27:09.641Z,15.80
2019-04-25T21:29:38.159Z,15.80
2019-04-25T21:32:06.692Z,15.70
2019-04-25T21:34:35.214Z,15.60
2019-04-25T21:37:04.115Z,15.60
2019-04-25T21:39:51.487Z,15.70
2019-04-25T21:42:21.951Z,15.80
2019-04-25T21:44:51.769Z,15.90
2019-04-25T21:47:20.967Z,16.00
2019-04-25T21:49:49.704Z,16.30
2019-04-25T21:52:18.524Z,16.40
2019-04-25T21:54:48.638Z,16.60
2019-04-25T21:57:17.395Z,16.50
2019-04-25T21:59:46.031Z,16.60
2019-04-25T22:02:14.980Z,16.80
2019-04-25T22:04:43.883Z,16.90
2019-04-25T22:07:13.139Z,16.90
2019-04-25T22:09:42.005Z,16.90
2019-04-25T22:12:11.883Z,16.80
2019-04-25T22:14:40.478Z,16.80
2019-04-25T22:17:09.579Z,16.60
2019-04-25T22:19:38.502Z,16.50
2019-04-25T22:22:07.247Z,16.40
2019-04-25T22:24:35.795Z,16.30
2019-04-25T22:27:06.027Z,16.20
2019-04-25T22:29:36.207Z,16.20
2019-04-25T22:32:08.904Z,16.20
2019-04-25T22:34:51.662Z,16.30
2019-04-25T22:37:09.596Z,16.20
2019-04-25T22:39:38.422Z,16.20
2019-04-25T22:42:07.063Z,16.20
2019-04-25T22:44:36.487Z,16.10
2019-04-25T22:47:06.325Z,16.10
2019-04-25T22:49:34.872Z,16.10
2019-04-25T22:52:03.568Z,16.10
2019-04-25T22:54:32.155Z,16.20
2019-04-25T22:57:01.784Z,16.30
2019-04-25T22:59:30.810Z,16.50
2019-04-25T23:02:12.795Z,16.50
2019-04-25T23:04:43.276Z,16.80
2019-04-25T23:07:12.301Z,16.90
2019-04-25T23:09:40.902Z,16.90
2019-04-25T23:12:09.651Z,16.90
2019-04-25T23:14:39.178Z,16.80
2019-04-25T23:17:07.648Z,16.60
2019-04-25T23:19:36.174Z,16.50
2019-04-25T23:22:05.666Z,16.40
2019-04-25T23:24:35.955Z,16.30
2019-04-25T23:27:06.610Z,16.10
2019-04-25T23:29:35.071Z,16.00
2019-04-25T23:32:04.026Z,15.90
2019-04-25T23:34:32.978Z,15.80
2019-04-25T23:37:01.431Z,15.80
2019-04-25T23:39:30.527Z,15.70
2019-04-25T23:41:59.063Z,15.50
2019-04-25T23:44:27.595Z,15.40
2019-04-25T23:46:56.467Z,15.40
2019-04-25T23:49:24.994Z,15.30
2019-04-25T23:51:53.527Z,15.30
2019-04-25T23:54:22.065Z,15.30
2019-04-25T23:56:50.587Z,15.10
2019-04-25T23:59:19.118Z,15.10
